Time;durP1;ratioP1;P1;durP2;ratioP2;P2;SDS_P1;SDS_P2;PMS_P1;PMS_P2;Temp;Humidity;BMP_temperature;BMP_pressure;BME280_temperature;BME280_humidity;BME280_pressure;Samples;Min_cycle;Max_cycle;Signal;HPM_P1;HPM_P2
2022/01/13 00:01:34;;;;;;;30.52;12.25;;;6.70;94.50;;;;;;4999807;28;20081;-50
2022/01/13 00:04:02;;;;;;;31.65;13.18;;;6.70;94.50;;;;;;4996866;28;20034;-50
2022/01/13 00:06:28;;;;;;;28.15;12.50;;;6.70;94.60;;;;;;5000659;28;20022;-50
2022/01/13 00:08:55;;;;;;;32.42;13.38;;;6.70;94.50;;;;;;5002112;28;20116;-50
2022/01/13 00:11:22;;;;;;;28.83;12.48;;;6.70;94.60;;;;;;4997824;28;20483;-50
2022/01/13 00:13:49;;;;;;;26.13;13.80;;;6.70;94.50;;;;;;5006388;28;20030;-50
2022/01/13 00:22:15;;;;;;;22.42;10.45;;;6.60;94.60;;;;;;5001694;28;20499;-50
2022/01/13 00:24:28;;;;;;;28.48;10.57;;;6.60;94.60;;;;;;5001222;28;20042;-50
2022/01/13 00:26:55;;;;;;;29.17;11.82;;;6.60;94.50;;;;;;5004810;28;20384;-50
2022/01/13 00:29:27;;;;;;;29.17;12.05;;;6.60;94.50;;;;;;5002976;28;20042;-50
2022/01/13 00:31:53;;;;;;;22.98;10.85;;;6.60;94.50;;;;;;5002985;28;20036;-50
2022/01/13 00:34:19;;;;;;;25.10;11.25;;;6.60;94.50;;;;;;5004720;28;20113;-50
2022/01/13 00:36:44;;;;;;;30.55;12.45;;;6.60;94.40;;;;;;5002380;28;20057;-50
2022/01/13 00:39:12;;;;;;;26.38;12.23;;;6.60;94.40;;;;;;5003450;28;20019;-50
2022/01/13 00:41:39;;;;;;;28.17;12.30;;;6.60;94.40;;;;;;5006889;28;20026;-50
2022/01/13 00:44:07;;;;;;;31.48;11.65;;;6.60;94.40;;;;;;5003844;28;20106;-50
2022/01/13 00:46:42;;;;;;;26.63;12.52;;;6.60;94.50;;;;;;5005231;28;20108;-50
2022/01/13 00:49:09;;;;;;;27.98;11.63;;;6.60;94.40;;;;;;5004080;28;20115;-49
2022/01/13 00:51:34;;;;;;;27.35;11.15;;;6.60;94.40;;;;;;5004838;28;20034;-50
2022/01/13 00:54:04;;;;;;;28.73;11.25;;;6.60;94.40;;;;;;5003761;28;20381;-49
2022/01/13 00:56:32;;;;;;;25.42;11.25;;;6.60;94.40;;;;;;5004421;28;20038;-49
2022/01/13 00:59:09;;;;;;;26.73;11.80;;;6.60;94.30;;;;;;5002785;28;20362;-50
2022/01/13 01:01:40;;;;;;;31.90;11.85;;;6.60;94.70;;;;;;5001466;28;20096;-51
2022/01/13 01:04:06;;;;;;;32.80;11.55;;;6.60;94.30;;;;;;5002273;28;20484;-50
2022/01/13 01:06:33;;;;;;;26.02;12.30;;;6.60;94.30;;;;;;5004693;28;20026;-50
2022/01/13 01:09:00;;;;;;;51.05;15.27;;;6.60;94.30;;;;;;5003404;28;20025;-50
2022/01/13 01:11:26;;;;;;;35.88;11.80;;;6.60;94.30;;;;;;4999816;28;20109;-50
2022/01/13 01:13:56;;;;;;;27.27;11.77;;;6.60;94.20;;;;;;5001643;28;20483;-50
2022/01/13 01:16:25;;;;;;;27.67;12.50;;;6.60;94.30;;;;;;5002628;28;20062;-50
2022/01/13 01:19:01;;;;;;;24.48;10.77;;;6.60;94.20;;;;;;5002061;28;20027;-50
2022/01/13 01:29:01;;;;;;;30.35;10.60;;;6.60;94.20;;;;;;5001657;28;20487;-50
2022/01/13 01:31:30;;;;;;;29.98;11.07;;;6.50;94.20;;;;;;5000740;28;20472;-50
2022/01/13 01:34:23;;;;;;;28.60;11.93;;;6.50;94.20;;;;;;5004905;28;20520;-50
2022/01/13 01:36:52;;;;;;;29.63;11.80;;;6.50;94.20;;;;;;5003808;28;20038;-50
2022/01/13 01:39:19;;;;;;;36.58;12.52;;;6.50;94.20;;;;;;5002511;28;20464;-50
2022/01/13 01:41:48;;;;;;;28.45;10.90;;;6.50;94.20;;;;;;5002135;28;20030;-50
2022/01/13 01:44:17;;;;;;;24.10;11.73;;;6.50;94.10;;;;;;5001133;28;20038;-50
2022/01/13 01:46:45;;;;;;;25.33;10.00;;;6.50;94.50;;;;;;5005029;28;20350;-50
2022/01/13 01:49:18;;;;;;;26.88;11.25;;;6.50;94.20;;;;;;5004427;28;20053;-50
2022/01/13 01:51:49;;;;;;;23.48;11.15;;;6.50;94.10;;;;;;5003500;28;20026;-50
2022/01/13 01:54:15;;;;;;;27.25;11.38;;;6.50;94.20;;;;;;5001608;28;20057;-50
2022/01/13 01:56:43;;;;;;;34.45;12.93;;;6.50;94.20;;;;;;5000830;28;20077;-50
2022/01/13 01:59:13;;;;;;;31.65;12.07;;;6.50;94.10;;;;;;5003287;28;20026;-50
2022/01/13 02:01:38;;;;;;;23.48;10.20;;;6.50;94.20;;;;;;5001089;28;20117;-50
2022/01/13 02:04:06;;;;;;;24.90;10.88;;;6.50;94.10;;;;;;5002463;28;20113;-50
2022/01/13 02:06:35;;;;;;;22.80;9.38;;;6.50;94.10;;;;;;5001830;28;20274;-50
2022/01/13 02:09:04;;;;;;;26.40;10.95;;;6.40;94.10;;;;;;5000402;28;20141;-50
2022/01/13 02:11:40;;;;;;;26.90;10.63;;;6.50;94.20;;;;;;5002490;28;20029;-50
2022/01/13 02:14:58;;;;;;;31.00;11.00;;;6.50;94.10;;;;;;5003249;28;20650;-50
2022/01/13 02:17:10;;;;;;;25.55;10.15;;;6.50;94.10;;;;;;5003974;28;20401;-49
2022/01/13 02:19:41;;;;;;;24.85;11.27;;;6.50;94.10;;;;;;4998174;28;20069;-50
2022/01/13 02:22:08;;;;;;;29.60;11.13;;;6.50;94.00;;;;;;5003615;28;20033;-50
2022/01/13 02:24:35;;;;;;;25.17;10.32;;;6.50;94.00;;;;;;5004435;28;20026;-50
2022/01/13 02:27:04;;;;;;;32.63;12.10;;;6.50;94.00;;;;;;5004724;28;20084;-50
2022/01/13 02:29:32;;;;;;;27.42;11.40;;;6.50;94.00;;;;;;5004279;28;20467;-50
2022/01/13 02:31:58;;;;;;;29.98;11.43;;;6.50;94.00;;;;;;4998600;28;20044;-49
2022/01/13 02:34:24;;;;;;;29.45;11.07;;;6.50;94.10;;;;;;5003223;28;20125;-50
2022/01/13 02:36:53;;;;;;;25.02;11.23;;;6.50;94.00;;;;;;4999600;28;20092;-50
2022/01/13 02:39:26;;;;;;;25.73;9.85;;;6.50;94.10;;;;;;5000991;28;20516;-50
2022/01/13 02:41:54;;;;;;;29.35;11.80;;;6.50;94.00;;;;;;5001682;28;20030;-50
2022/01/13 02:44:23;;;;;;;22.90;10.52;;;6.40;94.00;;;;;;5001786;28;20026;-50
2022/01/13 02:49:19;;;;;;;27.98;11.27;;;6.40;94.00;;;;;;5004386;28;20018;-49
2022/01/13 02:51:47;;;;;;;;;;;6.50;94.00;;;;;;5002151;28;20375;-50
2022/01/13 02:54:13;;;;;;;25.75;11.60;;;6.40;93.90;;;;;;4999245;28;20107;-49
2022/01/13 02:56:39;;;;;;;24.02;10.35;;;6.40;94.00;;;;;;5002081;28;20040;-50
2022/01/13 02:59:06;;;;;;;27.23;10.68;;;6.40;93.90;;;;;;5004190;28;20083;-50
2022/01/13 03:01:33;;;;;;;26.05;10.65;;;6.40;93.90;;;;;;4999863;28;20038;-50
2022/01/13 03:04:06;;;;;;;28.17;10.65;;;6.40;93.90;;;;;;5002718;28;20026;-50
2022/01/13 03:06:36;;;;;;;28.05;12.18;;;6.40;94.00;;;;;;5002319;28;20029;-50
2022/01/13 03:09:07;;;;;;;22.65;11.15;;;6.40;93.90;;;;;;5000839;28;20022;-49
2022/01/13 03:11:37;;;;;;;32.92;11.90;;;6.40;93.90;;;;;;4999505;28;20068;-49
2022/01/13 03:14:10;;;;;;;30.73;11.63;;;6.40;93.80;;;;;;5000405;28;20034;-50
2022/01/13 03:16:38;;;;;;;20.00;9.48;;;6.40;93.90;;;;;;5000266;28;20036;-50
2022/01/13 03:19:05;;;;;;;30.35;12.68;;;6.40;93.80;;;;;;5001595;28;20030;-49
2022/01/13 03:21:31;;;;;;;26.35;11.07;;;6.40;93.80;;;;;;4992506;28;20052;-50
2022/01/13 03:23:56;;;;;;;23.48;10.20;;;6.40;93.80;;;;;;5000137;28;20022;-49
2022/01/13 03:26:23;;;;;;;32.33;12.15;;;6.40;93.80;;;;;;5003400;28;20418;-49
2022/01/13 03:29:14;;;;;;;22.55;9.88;;;6.40;93.80;;;;;;5001921;28;20057;-50
2022/01/13 03:31:45;;;;;;;26.00;11.57;;;6.40;93.80;;;;;;5002096;28;20376;-50
2022/01/13 03:34:13;;;;;;;21.83;10.63;;;6.40;93.80;;;;;;5000285;28;20042;-49
2022/01/13 03:36:40;;;;;;;24.73;10.80;;;6.30;93.70;;;;;;4999970;28;20034;-49
2022/01/13 03:39:08;;;;;;;26.15;10.77;;;6.30;93.80;;;;;;5001273;28;20068;-50
2022/01/13 03:41:36;;;;;;;23.50;10.60;;;6.30;93.70;;;;;;4999892;28;20663;-50
2022/01/13 03:44:07;;;;;;;23.40;10.90;;;6.40;93.80;;;;;;5000447;28;20101;-49
2022/01/13 03:46:37;;;;;;;19.92;9.68;;;6.40;93.70;;;;;;5001907;28;20444;-50
2022/01/13 03:49:08;;;;;;;25.33;10.93;;;6.40;93.80;;;;;;5004394;28;20041;-50
2022/01/13 03:51:55;;;;;;;22.98;10.43;;;6.30;93.70;;;;;;5002368;28;20038;-50
2022/01/13 03:54:33;;;;;;;31.63;10.68;;;6.40;93.70;;;;;;5001435;28;20084;-50
2022/01/13 03:57:36;;;;;;;26.23;10.60;;;6.40;93.70;;;;;;5006031;28;20496;-50
2022/01/13 04:00:27;;;;;;;20.05;9.43;;;6.40;93.70;;;;;;5002464;28;20028;-50
2022/01/13 04:02:52;;;;;;;;;;;6.30;93.70;;;;;;5003164;28;20037;-50
2022/01/13 04:05:18;;;;;;;24.55;10.40;;;6.30;93.70;;;;;;5003913;28;20315;-50
2022/01/13 04:07:43;;;;;;;18.65;9.00;;;6.30;93.70;;;;;;5005332;28;20033;-50
2022/01/13 04:10:28;;;;;;;29.48;12.05;;;6.30;93.60;;;;;;5001121;28;20121;-50
2022/01/13 04:12:54;;;;;;;18.90;10.68;;;6.30;93.60;;;;;;5001750;28;20031;-50
2022/01/13 04:15:23;;;;;;;30.80;11.57;;;6.30;93.60;;;;;;5003928;28;20037;-50
2022/01/13 04:17:49;;;;;;;20.75;9.77;;;6.30;93.60;;;;;;5004941;28;20481;-49
2022/01/13 04:20:14;;;;;;;29.00;11.63;;;6.30;93.60;;;;;;5004653;28;20460;-49
2022/01/13 04:22:40;;;;;;;32.47;12.70;;;6.30;93.60;;;;;;5000577;28;20062;-49
2022/01/13 04:25:07;;;;;;;27.77;11.43;;;6.30;93.60;;;;;;5005564;28;20101;-50
2022/01/13 04:27:38;;;;;;;26.45;11.32;;;6.30;93.60;;;;;;5002340;28;20108;-50
2022/01/13 04:30:33;;;;;;;27.80;11.70;;;6.30;93.60;;;;;;5002073;28;20056;-50
2022/01/13 04:32:56;;;;;;;23.00;10.10;;;6.30;93.60;;;;;;5002364;28;20027;-50
2022/01/13 04:35:22;;;;;;;32.63;11.05;;;6.30;93.60;;;;;;5002644;28;20045;-50
2022/01/13 04:37:48;;;;;;;29.27;10.05;;;6.30;93.60;;;;;;5004949;28;20452;-50
2022/01/13 04:40:14;;;;;;;28.38;11.63;;;6.30;93.60;;;;;;5003736;28;20045;-50
2022/01/13 04:42:43;;;;;;;26.38;11.50;;;6.30;93.50;;;;;;5000940;28;20108;-50
2022/01/13 04:45:09;;;;;;;25.70;10.30;;;6.30;93.50;;;;;;5004663;28;20030;-50
2022/01/13 04:47:35;;;;;;;35.55;12.60;;;6.30;93.60;;;;;;5003975;28;20117;-49
2022/01/13 04:50:00;;;;;;;21.52;11.50;;;6.30;93.60;;;;;;5002783;28;20097;-50
2022/01/13 04:52:26;;;;;;;33.47;13.02;;;6.30;93.50;;;;;;5006153;28;20109;-50
2022/01/13 04:54:52;;;;;;;25.27;10.52;;;6.30;93.60;;;;;;5001898;28;20536;-49
2022/01/13 04:57:17;;;;;;;25.40;11.40;;;6.30;93.50;;;;;;5002282;28;20353;-50
2022/01/13 04:59:45;;;;;;;25.20;11.23;;;6.30;93.50;;;;;;5003903;28;20024;-50
2022/01/13 05:02:11;;;;;;;27.75;11.77;;;6.30;93.50;;;;;;5004444;28;20034;-50
2022/01/13 05:04:37;;;;;;;27.63;10.48;;;6.30;93.50;;;;;;5002448;28;20022;-50
2022/01/13 05:07:03;;;;;;;28.73;11.40;;;6.30;93.50;;;;;;5002321;28;20449;-50
2022/01/13 05:09:28;;;;;;;20.13;10.13;;;6.30;93.50;;;;;;5004314;28;20096;-50
2022/01/13 05:11:54;;;;;;;19.05;9.48;;;6.30;93.60;;;;;;5002902;28;20489;-50
2022/01/13 05:14:19;;;;;;;25.73;10.60;;;6.20;93.50;;;;;;4999948;28;20034;-50
2022/01/13 05:17:08;;;;;;;28.55;10.77;;;6.30;93.60;;;;;;5004717;28;20033;-50
2022/01/13 05:19:42;;;;;;;30.02;9.82;;;6.30;93.50;;;;;;5001664;28;20027;-50
2022/01/13 05:24:36;;;;;;;29.80;11.70;;;6.30;93.50;;;;;;5002497;28;20034;-50
2022/01/13 05:27:02;;;;;;;26.48;10.98;;;6.30;93.60;;;;;;5004180;28;20114;-50
2022/01/13 05:29:28;;;;;;;30.38;11.73;;;6.20;93.50;;;;;;5000882;28;20096;-50
2022/01/13 05:31:53;;;;;;;22.70;11.35;;;6.20;93.50;;;;;;5001946;28;20445;-50
2022/01/13 05:34:19;;;;;;;20.60;9.80;;;6.20;93.50;;;;;;5009191;28;20022;-50
2022/01/13 05:36:45;;;;;;;27.27;11.52;;;6.30;93.50;;;;;;5004029;28;20309;-50
2022/01/13 05:39:11;;;;;;;29.50;11.95;;;6.20;93.50;;;;;;5002744;28;20075;-49
2022/01/13 05:41:38;;;;;;;31.13;11.23;;;6.20;93.50;;;;;;5002094;28;20037;-50
2022/01/13 05:44:04;;;;;;;23.33;11.70;;;6.30;93.50;;;;;;5004462;28;20022;-50
2022/01/13 05:46:29;;;;;;;32.08;12.27;;;6.20;93.40;;;;;;5004278;28;20026;-50
2022/01/13 05:48:55;;;;;;;33.80;13.43;;;6.20;93.40;;;;;;5007342;28;20029;-50
2022/01/13 05:51:21;;;;;;;27.73;13.57;;;6.20;93.50;;;;;;5001891;28;20025;-49
2022/01/13 05:53:47;;;;;;;30.90;11.85;;;6.20;93.40;;;;;;5003742;28;20022;-49
2022/01/13 05:56:13;;;;;;;24.15;10.95;;;6.20;93.40;;;;;;5009404;28;20124;-50
2022/01/13 05:58:39;;;;;;;24.30;11.48;;;6.20;93.40;;;;;;5007251;28;20460;-50
2022/01/13 06:01:05;;;;;;;24.58;10.30;;;6.20;93.40;;;;;;5010633;28;20030;-50
2022/01/13 06:03:31;;;;;;;23.88;10.35;;;6.20;93.40;;;;;;5003842;28;20018;-50
2022/01/13 06:05:56;;;;;;;26.73;11.32;;;6.20;93.40;;;;;;5009906;28;20102;-49
2022/01/13 06:08:22;;;;;;;31.50;12.05;;;6.20;93.40;;;;;;5010591;28;20349;-50
2022/01/13 06:10:48;;;;;;;27.25;11.23;;;6.20;93.40;;;;;;5009887;28;20119;-50
2022/01/13 06:13:14;;;;;;;29.08;11.20;;;6.20;93.40;;;;;;5006290;28;20034;-50
2022/01/13 06:15:40;;;;;;;33.78;12.25;;;6.20;93.40;;;;;;5009491;28;20076;-49
2022/01/13 06:18:11;;;;;;;29.88;10.40;;;6.20;93.70;;;;;;5002061;28;20029;-50
2022/01/13 06:20:39;;;;;;;27.42;10.35;;;6.20;93.40;;;;;;5003063;28;20029;-50
2022/01/13 06:23:05;;;;;;;23.00;10.88;;;6.20;93.30;;;;;;4999548;28;20050;-50
2022/01/13 06:25:31;;;;;;;28.02;11.82;;;6.20;93.30;;;;;;5003276;28;20030;-50
2022/01/13 06:27:57;;;;;;;32.72;13.02;;;6.20;93.40;;;;;;4998694;28;20097;-49
2022/01/13 06:30:23;;;;;;;21.40;9.18;;;6.20;93.40;;;;;;4999213;28;20507;-49
2022/01/13 06:32:48;;;;;;;30.20;11.18;;;6.20;93.40;;;;;;4999449;28;20049;-50
2022/01/13 06:35:14;;;;;;;31.38;10.93;;;6.20;93.30;;;;;;5000048;28;20069;-48
2022/01/13 06:37:43;;;;;;;26.65;11.85;;;6.20;93.10;;;;;;5001706;28;20457;-49
2022/01/13 06:40:11;;;;;;;25.85;11.23;;;6.30;92.90;;;;;;5002596;28;20503;-49
2022/01/13 06:42:37;;;;;;;22.98;10.60;;;6.30;92.60;;;;;;5000576;28;20026;-49
2022/01/13 06:45:04;;;;;;;22.35;10.05;;;6.20;92.40;;;;;;5002710;28;20543;-49
2022/01/13 06:47:30;;;;;;;29.95;11.07;;;6.30;92.50;;;;;;5000627;28;20041;-49
2022/01/13 06:49:55;;;;;;;24.27;11.23;;;6.30;92.40;;;;;;5000978;28;20030;-48
2022/01/13 06:52:21;;;;;;;28.90;11.18;;;6.20;92.40;;;;;;5001677;28;20433;-49
2022/01/13 06:54:46;;;;;;;36.22;11.65;;;6.30;92.40;;;;;;5000416;28;20014;-49
2022/01/13 06:57:12;;;;;;;25.65;11.35;;;6.20;92.30;;;;;;5000964;28;20557;-49
2022/01/13 06:59:38;;;;;;;25.52;11.13;;;6.30;92.70;;;;;;5001285;28;20545;-48
2022/01/13 07:02:03;;;;;;;27.77;11.70;;;6.30;92.40;;;;;;4999688;28;20446;-49
2022/01/13 07:04:29;;;;;;;26.80;10.77;;;6.30;92.40;;;;;;5003062;28;20496;-49
2022/01/13 07:06:55;;;;;;;26.63;10.73;;;6.30;92.30;;;;;;4999650;28;20038;-49
2022/01/13 07:09:21;;;;;;;28.08;10.57;;;6.30;92.40;;;;;;5001434;28;20022;-49
2022/01/13 07:11:48;;;;;;;23.80;10.07;;;6.30;92.40;;;;;;5001824;28;20502;-49
2022/01/13 07:14:14;;;;;;;30.70;9.93;;;6.30;92.40;;;;;;4998031;28;20033;-49
2022/01/13 07:16:41;;;;;;;27.23;8.82;;;6.30;92.40;;;;;;5001258;28;20117;-48
2022/01/13 07:19:10;;;;;;;22.90;10.52;;;6.30;92.40;;;;;;4999779;28;20168;-49
2022/01/13 07:21:36;;;;;;;21.38;10.55;;;6.30;92.50;;;;;;5000190;28;20037;-48
2022/01/13 07:24:01;;;;;;;20.88;9.90;;;6.30;92.50;;;;;;5007854;28;20018;-49
2022/01/13 07:26:27;;;;;;;24.20;9.98;;;6.30;92.40;;;;;;5006142;28;20022;-49
2022/01/13 07:28:53;;;;;;;21.67;9.70;;;6.30;92.40;;;;;;5004535;28;20338;-49
2022/01/13 07:31:19;;;;;;;32.35;10.82;;;6.30;92.50;;;;;;5005166;28;20037;-49
2022/01/13 07:33:46;;;;;;;26.02;10.35;;;6.30;92.50;;;;;;5008099;28;20029;-49
2022/01/13 07:36:11;;;;;;;26.23;10.65;;;6.30;92.50;;;;;;5007626;28;20048;-49
2022/01/13 07:38:37;;;;;;;21.52;9.05;;;6.30;92.50;;;;;;5005857;28;20113;-49
2022/01/13 07:41:03;;;;;;;21.45;9.48;;;6.30;92.60;;;;;;5007925;28;20033;-49
2022/01/13 07:43:30;;;;;;;23.48;9.80;;;6.30;92.90;;;;;;5006026;28;20045;-49
2022/01/13 07:45:56;;;;;;;19.30;9.07;;;6.30;92.60;;;;;;5010235;28;20138;-49
2022/01/13 07:48:24;;;;;;;21.27;9.20;;;6.30;92.60;;;;;;5007150;28;20409;-49
2022/01/13 07:50:50;;;;;;;29.77;10.35;;;6.30;92.90;;;;;;5005705;28;20077;-49
2022/01/13 07:53:15;;;;;;;26.65;9.45;;;6.40;92.60;;;;;;5007262;28;20018;-49
2022/01/13 07:55:42;;;;;;;24.30;10.27;;;6.40;92.60;;;;;;5007871;28;20034;-49
2022/01/13 07:58:08;;;;;;;23.63;8.98;;;6.40;92.60;;;;;;5005473;28;20446;-49
2022/01/13 08:00:34;;;;;;;17.70;8.52;;;6.30;92.60;;;;;;5006836;28;20064;-49
2022/01/13 08:03:00;;;;;;;26.35;10.00;;;6.30;92.60;;;;;;5008945;28;20463;-49
2022/01/13 08:05:25;;;;;;;26.17;9.55;;;6.40;92.60;;;;;;5005611;28;20084;-48
2022/01/13 08:07:51;;;;;;;29.70;11.38;;;6.40;92.60;;;;;;5006591;28;20022;-49
2022/01/13 08:10:17;;;;;;;24.40;10.82;;;6.30;92.60;;;;;;5008071;28;20026;-49
2022/01/13 08:12:42;;;;;;;33.83;11.50;;;6.30;92.60;;;;;;5005360;28;20026;-49
2022/01/13 08:15:12;;;;;;;21.85;8.88;;;6.40;92.70;;;;;;5006679;28;20056;-49
2022/01/13 08:20:24;;;;;;;25.67;10.30;;;6.40;92.80;;;;;;5003214;28;20088;-49
2022/01/13 08:22:49;;;;;;;30.00;12.43;;;6.40;92.70;;;;;;5006481;28;20030;-49
2022/01/13 08:25:17;;;;;;;26.42;10.23;;;6.30;92.70;;;;;;5012324;28;20416;-49
2022/01/13 08:27:43;;;;;;;31.98;10.68;;;6.40;92.70;;;;;;5006753;28;20031;-49
2022/01/13 08:30:10;;;;;;;32.13;13.05;;;6.30;92.70;;;;;;5007686;28;20034;-49
2022/01/13 08:32:35;;;;;;;30.70;13.73;;;6.40;92.80;;;;;;5006751;28;20065;-49
2022/01/13 08:35:01;;;;;;;33.13;12.88;;;6.40;92.80;;;;;;5002365;28;20074;-49
2022/01/13 08:37:26;;;;;;;24.52;10.27;;;6.40;92.80;;;;;;5002581;28;20164;-49
2022/01/13 08:39:52;;;;;;;31.27;12.95;;;6.40;92.90;;;;;;5005125;28;20029;-49
2022/01/13 08:42:18;;;;;;;34.33;13.30;;;6.40;92.90;;;;;;5003378;28;20022;-49
2022/01/13 08:44:43;;;;;;;26.98;10.65;;;6.40;92.90;;;;;;5002922;28;20373;-49
2022/01/13 08:47:09;;;;;;;32.08;11.35;;;6.40;92.90;;;;;;5000637;28;20030;-49
2022/01/13 08:49:36;;;;;;;28.38;11.45;;;6.40;92.90;;;;;;5003149;28;20299;-49
2022/01/13 08:52:03;;;;;;;27.45;11.90;;;6.40;92.80;;;;;;5003954;28;20022;-49
2022/01/13 08:54:29;;;;;;;30.38;10.80;;;6.40;92.90;;;;;;5002519;28;20477;-49
2022/01/13 08:56:56;;;;;;;25.42;10.82;;;6.40;92.90;;;;;;5002398;28;20070;-49
2022/01/13 08:59:22;;;;;;;25.48;11.52;;;6.40;92.90;;;;;;5003543;28;20070;-49
2022/01/13 09:01:48;;;;;;;28.27;9.90;;;6.40;92.90;;;;;;5002143;28;20398;-49
2022/01/13 09:04:13;;;;;;;22.23;9.68;;;6.40;92.90;;;;;;5004345;28;20469;-49
2022/01/13 09:06:39;;;;;;;27.58;10.63;;;6.40;93.00;;;;;;5003855;28;20033;-49
2022/01/13 09:09:04;;;;;;;29.85;11.65;;;6.50;93.00;;;;;;5003638;28;20068;-49
2022/01/13 09:11:30;;;;;;;24.30;9.95;;;6.50;93.00;;;;;;5001174;28;20401;-49
2022/01/13 09:13:57;;;;;;;26.02;11.10;;;6.50;93.00;;;;;;5003711;28;20045;-49
2022/01/13 09:16:26;;;;;;;30.40;10.18;;;6.50;93.00;;;;;;4999448;28;20065;-49
2022/01/13 09:21:21;;;;;;;31.55;12.07;;;6.50;93.00;;;;;;5002754;28;20113;-49
2022/01/13 09:23:46;;;;;;;21.30;11.85;;;6.50;93.10;;;;;;5001743;28;20023;-49
2022/01/13 09:26:12;;;;;;;22.30;10.73;;;6.50;93.10;;;;;;5003293;28;20137;-48
2022/01/13 09:28:38;;;;;;;28.75;11.18;;;6.50;93.10;;;;;;5003818;28;20026;-49
2022/01/13 09:31:04;;;;;;;25.13;9.98;;;6.50;93.10;;;;;;5000541;28;20308;-49
2022/01/13 09:33:30;;;;;;;28.10;10.10;;;6.60;93.10;;;;;;5002073;28;20026;-49
2022/01/13 09:35:56;;;;;;;30.02;11.27;;;6.60;93.50;;;;;;5001498;28;20109;-49
2022/01/13 09:38:22;;;;;;;23.60;10.35;;;6.50;93.20;;;;;;5001621;28;20019;-49
2022/01/13 09:40:52;;;;;;;30.50;11.10;;;6.60;93.20;;;;;;5002190;28;20022;-48
2022/01/13 09:43:21;;;;;;;32.78;11.48;;;6.60;93.20;;;;;;5003469;28;20052;-49
2022/01/13 09:45:47;;;;;;;28.48;9.85;;;6.60;93.30;;;;;;5002522;28;20041;-49
2022/01/13 09:48:13;;;;;;;32.78;10.95;;;6.60;93.20;;;;;;5001088;28;20027;-49
2022/01/13 09:50:39;;;;;;;32.47;13.18;;;6.60;93.20;;;;;;5003051;28;20057;-49
2022/01/13 09:53:07;;;;;;;37.78;14.75;;;6.60;93.30;;;;;;5001921;28;20360;-49
2022/01/13 09:55:33;;;;;;;36.60;12.10;;;6.60;93.40;;;;;;5000803;28;20125;-49
2022/01/13 09:58:03;;;;;;;38.75;13.57;;;6.60;93.50;;;;;;5002445;28;20496;-49
2022/01/13 10:00:29;;;;;;;28.63;12.40;;;6.60;93.50;;;;;;5006214;28;20105;-49
2022/01/13 10:02:54;;;;;;;38.08;13.23;;;6.70;93.50;;;;;;5001046;28;20070;-49
2022/01/13 10:05:23;;;;;;;42.15;15.30;;;6.70;93.60;;;;;;5002790;28;20515;-49
2022/01/13 10:07:50;;;;;;;28.67;12.52;;;6.60;93.70;;;;;;5000693;28;20030;-49
2022/01/13 10:10:19;;;;;;;38.80;13.98;;;6.60;93.70;;;;;;5001042;28;20025;-49
2022/01/13 10:12:58;;;;;;;41.30;15.43;;;6.70;93.70;;;;;;5002510;28;20029;-49
2022/01/13 10:18:08;;;;;;;35.25;11.52;;;6.70;93.80;;;;;;5003418;28;20112;-49
2022/01/13 10:20:34;;;;;;;40.00;10.00;;;6.80;93.70;;;;;;5000639;28;20113;-49
2022/01/13 10:23:11;;;;;;;28.25;11.30;;;6.80;93.70;;;;;;5000618;28;20076;-49
2022/01/13 10:25:39;;;;;;;26.27;9.82;;;6.80;93.70;;;;;;5001175;28;20031;-49
2022/01/13 10:28:18;;;;;;;39.20;12.52;;;6.90;93.80;;;;;;5000528;28;20461;-49
2022/01/13 10:30:46;;;;;;;40.97;15.82;;;6.80;93.90;;;;;;5000589;28;20037;-49
2022/01/13 10:33:21;;;;;;;29.52;11.05;;;6.80;94.00;;;;;;5001741;28;20026;-49
2022/01/13 10:35:49;;;;;;;48.45;17.45;;;6.80;94.00;;;;;;5002976;28;20113;-49
2022/01/13 10:38:16;;;;;;;42.28;14.90;;;6.90;94.00;;;;;;5000997;28;20030;-49
2022/01/13 10:40:46;;;;;;;14.95;6.60;;;6.90;94.10;;;;;;5000481;28;20113;-49
2022/01/13 10:43:12;;;;;;;32.97;11.50;;;6.90;94.00;;;;;;4999846;28;20037;-49
2022/01/13 10:45:42;;;;;;;34.70;10.77;;;7.00;94.00;;;;;;5001270;28;20038;-49
2022/01/13 10:48:12;;;;;;;43.97;16.75;;;7.00;93.90;;;;;;5000416;28;20022;-49
2022/01/13 10:50:42;;;;;;;33.40;11.00;;;7.00;94.10;;;;;;5001116;28;20499;-49
2022/01/13 10:53:13;;;;;;;17.08;5.30;;;7.00;94.10;;;;;;5001504;28;20096;-49
2022/01/13 10:55:45;;;;;;;41.08;16.33;;;7.00;94.10;;;;;;5001219;28;20080;-49
2022/01/13 10:58:13;;;;;;;38.00;10.27;;;7.00;94.30;;;;;;4999665;28;20084;-49
2022/01/13 11:00:39;;;;;;;40.95;17.08;;;7.00;94.40;;;;;;5001452;28;20034;-49
2022/01/13 11:03:11;;;;;;;60.50;19.13;;;7.00;94.40;;;;;;5002353;28;20033;-49
2022/01/13 11:05:55;;;;;;;46.80;16.58;;;7.00;94.50;;;;;;5001843;28;20018;-49
2022/01/13 11:08:25;;;;;;;37.40;12.00;;;7.00;94.40;;;;;;5001406;28;20030;-49
2022/01/13 11:10:53;;;;;;;33.72;11.68;;;7.00;94.40;;;;;;5000629;28;20022;-49
2022/01/13 11:13:21;;;;;;;29.02;9.40;;;7.10;94.50;;;;;;5000019;28;20380;-49
2022/01/13 11:15:52;;;;;;;40.28;14.13;;;7.10;94.40;;;;;;4999284;28;20423;-49
2022/01/13 11:18:22;;;;;;;3.22;2.78;;;7.10;94.50;;;;;;5000786;28;20022;-50
2022/01/13 11:20:48;;;;;;;26.00;9.38;;;7.10;94.50;;;;;;5002482;28;20081;-49
2022/01/13 11:23:16;;;;;;;35.50;14.13;;;7.10;94.50;;;;;;5000129;28;20034;-49
2022/01/13 11:25:44;;;;;;;41.47;13.63;;;7.10;94.60;;;;;;4999494;28;20037;-49
2022/01/13 11:28:10;;;;;;;45.55;16.13;;;7.10;94.60;;;;;;5001503;28;20061;-49
2022/01/13 11:30:37;;;;;;;35.47;11.63;;;7.10;94.80;;;;;;4998672;28;20392;-49
2022/01/13 11:33:02;;;;;;;31.95;11.15;;;7.10;94.70;;;;;;5000937;28;20026;-49
2022/01/13 11:35:33;;;;;;;44.22;16.13;;;7.10;94.70;;;;;;5000459;28;20675;-49
2022/01/13 11:38:05;;;;;;;51.50;15.82;;;7.00;94.90;;;;;;4999259;28;20532;-49
2022/01/13 11:40:37;;;;;;;45.83;16.77;;;7.10;95.00;;;;;;5000235;28;20042;-49
2022/01/13 11:43:05;;;;;;;38.83;15.10;;;7.00;95.10;;;;;;4999040;28;20030;-49
2022/01/13 11:45:39;;;;;;;43.88;16.75;;;7.00;95.10;;;;;;4999652;28;20034;-49
2022/01/13 11:48:16;;;;;;;50.85;17.42;;;7.00;95.20;;;;;;4999928;28;20035;-49
2022/01/13 11:50:47;;;;;;;50.50;16.13;;;7.00;95.20;;;;;;4999591;28;20132;-49
2022/01/13 11:53:27;;;;;;;52.75;16.20;;;7.10;95.30;;;;;;4999477;28;20030;-49
2022/01/13 11:55:59;;;;;;;49.27;17.37;;;7.10;95.30;;;;;;5001000;28;20038;-49
2022/01/13 11:58:40;;;;;;;40.13;15.10;;;7.10;95.30;;;;;;5000431;28;20421;-49
2022/01/13 12:01:10;;;;;;;43.67;15.80;;;7.00;95.40;;;;;;5002179;28;20492;-49
2022/01/13 12:03:38;;;;;;;36.15;14.48;;;7.10;95.50;;;;;;4999769;28;20046;-49
2022/01/13 12:06:04;;;;;;;48.42;15.80;;;7.10;95.60;;;;;;5001642;28;20034;-49
2022/01/13 12:08:46;;;;;;;43.35;17.67;;;7.00;95.60;;;;;;5000308;28;20521;-49
2022/01/13 12:11:51;;;;;;;48.60;17.23;;;7.10;95.60;;;;;;5003431;28;20046;-49
2022/01/13 12:14:27;;;;;;;45.03;17.13;;;7.10;95.70;;;;;;5004346;28;20066;-49
2022/01/13 12:16:56;;;;;;;42.55;16.17;;;7.10;95.80;;;;;;5002440;28;20462;-49
2022/01/13 12:19:39;;;;;;;44.92;15.77;;;7.10;95.90;;;;;;5004170;28;20054;-49
2022/01/13 12:22:12;;;;;;;45.67;16.27;;;7.20;96.40;;;;;;5002960;28;20023;-49
2022/01/13 12:24:57;;;;;;;39.53;13.55;;;7.20;96.10;;;;;;5002884;28;20019;-49
2022/01/13 12:27:24;;;;;;;46.78;16.02;;;7.30;96.20;;;;;;5002435;28;20045;-49
2022/01/13 12:30:21;;;;;;;39.35;14.15;;;7.30;96.10;;;;;;5004096;28;20037;-49
2022/01/13 12:32:52;;;;;;;30.48;12.60;;;7.30;96.20;;;;;;5003163;28;20274;-49
2022/01/13 12:35:21;;;;;;;37.78;14.27;;;7.30;96.20;;;;;;5003622;28;20128;-49
2022/01/13 12:37:59;;;;;;;35.22;15.25;;;7.30;96.30;;;;;;5005160;28;20014;-49
2022/01/13 12:40:25;;;;;;;40.08;13.82;;;7.30;96.40;;;;;;5004721;28;20342;-49
2022/01/13 12:42:53;;;;;;;32.45;13.43;;;7.30;96.50;;;;;;5001717;28;20023;-49
2022/01/13 12:45:33;;;;;;;49.33;15.63;;;7.40;96.50;;;;;;5004034;28;20037;-49
2022/01/13 12:48:09;;;;;;;33.08;12.68;;;7.40;96.50;;;;;;5001323;28;20037;-49
2022/01/13 12:50:44;;;;;;;41.22;14.73;;;7.50;96.60;;;;;;5002483;28;20030;-49
2022/01/13 12:53:15;;;;;;;36.05;14.35;;;7.40;96.60;;;;;;5001178;28;20357;-49
2022/01/13 12:55:44;;;;;;;47.10;16.35;;;7.50;96.40;;;;;;5003435;28;20057;-49
2022/01/13 12:58:11;;;;;;;48.78;17.73;;;7.50;96.40;;;;;;5004407;28;20022;-49
2022/01/13 13:00:37;;;;;;;48.55;17.30;;;7.50;96.20;;;;;;5002873;28;20472;-49
2022/01/13 13:03:06;;;;;;;39.90;14.60;;;7.50;96.30;;;;;;5002758;28;20022;-49
2022/01/13 13:05:36;;;;;;;42.25;15.05;;;7.50;96.30;;;;;;5001878;28;20139;-49
2022/01/13 13:08:02;;;;;;;41.95;15.20;;;7.50;96.30;;;;;;5002239;28;20050;-49
2022/01/13 13:10:29;;;;;;;42.38;14.43;;;7.50;96.20;;;;;;5004637;28;20114;-49
2022/01/13 13:12:55;;;;;;;41.15;13.88;;;7.50;96.20;;;;;;5002362;28;20029;-49